Terminal Aerodrome Forecast
Issued by NWS

Home | Current Version | Previous Version | Text Only | Print | Product List | Glossary On
Versions: 1 2 3 4 5 6 7 8 9 10 11 12 13 14
000
FTUS46 KMTR 301600 AAA
TAFSNS
TAF AMD
KSNS 301609Z 3016/3112 VRB03KT P6SM OVC010
     FM301730 30005KT P6SM FEW006
     FM302100 29014KT P6SM SKC
     FM310500 25005KT P6SM OVC008=

USA.gov is the U.S. government's official web portal to all federal, state and local government web resources and services.